createdAt,value
2018-03-20T00:01:06.663Z,-1.15
2018-03-20T00:02:16.364Z,-1
2018-03-20T00:03:25.586Z,-1.03
2018-03-20T00:04:35.568Z,-1
2018-03-20T00:05:45.011Z,-1.06
2018-03-20T00:06:54.711Z,-1.07
2018-03-20T00:08:04.683Z,-1.07
2018-03-20T00:09:14.639Z,-1.07
2018-03-20T00:10:24.354Z,-1.09
2018-03-20T00:11:33.794Z,-1.09
2018-03-20T00:12:43.233Z,-1.09
2018-03-20T00:13:53.189Z,-1
2018-03-20T00:15:03.171Z,-1.07
2018-03-20T00:16:12.876Z,-1.07
2018-03-20T00:17:22.054Z,-1.01
2018-03-20T00:18:31.777Z,-1
2018-03-20T00:19:41.486Z,-1.07
2018-03-20T00:20:51.198Z,-1.14
2018-03-20T00:22:00.896Z,-1.07
2018-03-20T00:23:10.856Z,-1.11
2018-03-20T00:24:20.849Z,-1.17
2018-03-20T00:25:30.828Z,-1.21
2018-03-20T00:26:40.541Z,-1.21
2018-03-20T00:27:50.239Z,-1.09
2018-03-20T00:28:59.927Z,-1.12
2018-03-20T00:30:09.625Z,-1.14
2018-03-20T00:31:19.313Z,-1.21
2018-03-20T00:32:29.271Z,-1.24
2018-03-20T00:33:38.972Z,-1.21
2018-03-20T00:34:48.412Z,-1.18
2018-03-20T00:35:58.385Z,-1.14
2018-03-20T00:37:08.347Z,-1.11
2018-03-20T00:38:17.792Z,-1.21
2018-03-20T00:39:27.792Z,-1.11
2018-03-20T00:40:37.744Z,-1.18
2018-03-20T00:41:47.698Z,-1.25
2018-03-20T00:42:57.391Z,-1.27
2018-03-20T00:44:07.388Z,-1.24
2018-03-20T00:45:17.355Z,-1.33
2018-03-20T00:46:26.792Z,-1.29
2018-03-20T00:47:36.492Z,-1.35
2018-03-20T00:48:46.188Z,-1.36
2018-03-20T00:49:55.890Z,-1.32
2018-03-20T00:51:05.869Z,-1.39
2018-03-20T00:52:15.835Z,-1.45
2018-03-20T00:53:25.266Z,-1.39
2018-03-20T00:54:35.221Z,-1.53
2018-03-20T00:55:44.937Z,-1.51
2018-03-20T00:56:54.896Z,-1.51
2018-03-20T00:58:04.075Z,-1.57
2018-03-20T00:59:13.510Z,-1.69
2018-03-20T01:00:23.219Z,-1.76
2018-03-20T01:01:32.648Z,-1.74
2018-03-20T01:02:42.589Z,-1.74
2018-03-20T01:03:52.288Z,-1.69
2018-03-20T01:05:01.976Z,-1.75
2018-03-20T01:06:11.666Z,-1.74
2018-03-20T01:07:21.622Z,-1.74
2018-03-20T01:08:31.332Z,-1.76
2018-03-20T01:09:41.024Z,-1.86
2018-03-20T01:10:50.981Z,-1.87
2018-03-20T01:12:00.932Z,-1.84
2018-03-20T01:13:10.884Z,-1.9
2018-03-20T01:14:21.104Z,-1.93
2018-03-20T01:15:30.803Z,-1.93
2018-03-20T01:16:40.244Z,-1.92
2018-03-20T01:17:49.680Z,-1.94
2018-03-20T01:18:59.645Z,-2
2018-03-20T01:20:09.586Z,-1.99
2018-03-20T01:21:19.539Z,-2.04
2018-03-20T01:22:29.234Z,-2.07
2018-03-20T01:23:38.931Z,-2.04
2018-03-20T01:24:48.885Z,-2.02
2018-03-20T01:25:58.840Z,-2
2018-03-20T01:27:08.792Z,-2.08
2018-03-20T01:28:18.743Z,-2.13
2018-03-20T01:29:28.690Z,-2.17
2018-03-20T01:30:38.650Z,-2.14
2018-03-20T01:31:48.609Z,-2.1
2018-03-20T01:32:58.563Z,-2.13
2018-03-20T01:34:08.259Z,-2.08
2018-03-20T01:35:17.966Z,-2.13
2018-03-20T01:36:27.714Z,-2.11
2018-03-20T01:37:37.677Z,-2.08
2018-03-20T01:38:47.376Z,-2.23
2018-03-20T01:39:57.333Z,-2.1
2018-03-20T01:41:07.326Z,-2.15
2018-03-20T01:42:17.299Z,-2.22
2018-03-20T01:43:26.748Z,-2.22
2018-03-20T01:44:36.440Z,-2.17
2018-03-20T01:45:46.450Z,-2.25
2018-03-20T01:46:56.412Z,-2.18
2018-03-20T01:48:06.371Z,-2.25
2018-03-20T01:49:16.078Z,-2.29
2018-03-20T01:50:26.049Z,-2.26
2018-03-20T01:51:36.011Z,-2.28
2018-03-20T01:52:45.987Z,-2.34
2018-03-20T01:53:55.688Z,-2.42
2018-03-20T01:55:05.655Z,-2.37
2018-03-20T01:56:15.101Z,-2.25
2018-03-20T01:57:25.055Z,-2.29
2018-03-20T01:58:35.017Z,-2.33
2018-03-20T01:59:44.974Z,-2.26
2018-03-20T02:00:54.671Z,-2.33
2018-03-20T02:02:04.112Z,-2.44
2018-03-20T02:03:14.065Z,-2.39
2018-03-20T02:04:24.019Z,-2.39
2018-03-20T02:05:33.711Z,-2.44
2018-03-20T02:06:43.709Z,-2.39
2018-03-20T02:07:53.675Z,-2.34
2018-03-20T02:09:03.634Z,-2.4
2018-03-20T02:10:13.068Z,-2.5
2018-03-20T02:11:23.012Z,-2.51
2018-03-20T02:12:32.700Z,-2.48
2018-03-20T02:13:42.651Z,-2.4
2018-03-20T02:14:52.610Z,-2.51
2018-03-20T02:16:02.574Z,-2.45
2018-03-20T02:17:12.267Z,-2.5
2018-03-20T02:18:22.289Z,-2.47
2018-03-20T02:19:32.246Z,-2.47
2018-03-20T02:20:42.199Z,-2.51
2018-03-20T02:21:52.153Z,-2.5
2018-03-20T02:23:01.851Z,-2.51
2018-03-20T02:24:11.301Z,-2.48
2018-03-20T02:25:21.259Z,-2.54
2018-03-20T02:26:31.211Z,-2.65
2018-03-20T02:27:41.401Z,-2.61
2018-03-20T02:28:51.377Z,-2.61
2018-03-20T02:30:01.334Z,-2.66
2018-03-20T02:31:11.069Z,-2.62
2018-03-20T02:32:21.023Z,-2.7
2018-03-20T02:33:30.980Z,-2.69
2018-03-20T02:34:40.688Z,-2.69
2018-03-20T02:35:50.650Z,-2.76
2018-03-20T02:37:00.347Z,-2.76
2018-03-20T02:38:09.796Z,-2.75
2018-03-20T02:39:19.512Z,-2.73
2018-03-20T02:40:29.488Z,-2.76
2018-03-20T02:41:39.458Z,-2.78
2018-03-20T02:42:49.415Z,-2.8
2018-03-20T02:43:59.109Z,-2.76
2018-03-20T02:45:09.057Z,-2.75
2018-03-20T02:46:18.747Z,-2.78
2018-03-20T02:47:28.714Z,-2.81
2018-03-20T02:48:38.730Z,-2.8
2018-03-20T02:49:48.708Z,-2.76
2018-03-20T02:50:58.673Z,-2.78
2018-03-20T02:52:08.749Z,-2.83
2018-03-20T02:53:18.435Z,-2.86
2018-03-20T02:54:28.397Z,-2.8
2018-03-20T02:55:38.353Z,-2.83
2018-03-20T02:56:48.329Z,-2.81
2018-03-20T02:57:58.039Z,-2.76
2018-03-20T02:59:08.261Z,-2.8
2018-03-20T03:00:18.237Z,-2.86
2018-03-20T03:01:28.285Z,-2.98
2018-03-20T03:02:38.243Z,-2.87
2018-03-20T03:03:47.945Z,-2.98
2018-03-20T03:04:57.911Z,-2.96
2018-03-20T03:06:07.653Z,-2.94
2018-03-20T03:07:17.608Z,-2.94
2018-03-20T03:08:27.583Z,-3.01
2018-03-20T03:09:37.546Z,-3.01
2018-03-20T03:10:47.244Z,-2.96
2018-03-20T03:11:56.937Z,-3.05
2018-03-20T03:13:06.385Z,-3.04
2018-03-20T03:14:16.348Z,-3.22
2018-03-20T03:15:26.303Z,-3.08
2018-03-20T03:16:36.268Z,-3.02
2018-03-20T03:17:46.229Z,-3.12
2018-03-20T03:18:56.187Z,-3.09
2018-03-20T03:20:06.138Z,-3.23
2018-03-20T03:21:16.092Z,-3.32
2018-03-20T03:22:25.778Z,-3.38
2018-03-20T03:23:35.482Z,-3.44
2018-03-20T03:24:45.442Z,-3.46
2018-03-20T03:25:55.147Z,-3.51
2018-03-20T03:27:05.094Z,-3.46
2018-03-20T03:28:15.059Z,-3.58
2018-03-20T03:29:24.487Z,-3.62
2018-03-20T03:30:34.232Z,-3.62
2018-03-20T03:31:43.681Z,-3.58
2018-03-20T03:32:53.647Z,-3.68
2018-03-20T03:34:03.085Z,-3.75
2018-03-20T03:35:12.524Z,-3.81
2018-03-20T03:36:22.482Z,-3.81
2018-03-20T03:37:32.201Z,-3.9
2018-03-20T03:38:42.202Z,-3.96
2018-03-20T03:39:51.635Z,-4.02
2018-03-20T03:41:01.325Z,-4.08
2018-03-20T03:42:11.016Z,-4.01
2018-03-20T03:43:20.972Z,-4.05
2018-03-20T03:44:30.659Z,-4.14
2018-03-20T03:45:40.629Z,-4.17
2018-03-20T03:46:50.332Z,-4.22
2018-03-20T03:47:59.767Z,-4.22
2018-03-20T03:49:09.715Z,-4.31
2018-03-20T03:50:19.405Z,-4.26
2018-03-20T03:51:29.101Z,-4.33
2018-03-20T03:52:39.063Z,-4.31
2018-03-20T03:53:49.019Z,-4.3
2018-03-20T03:54:58.970Z,-4.4
2018-03-20T03:56:08.654Z,-4.4
2018-03-20T03:57:18.354Z,-4.4
2018-03-20T03:58:28.316Z,-4.42
2018-03-20T03:59:38.268Z,-4.44
2018-03-20T04:00:47.957Z,-4.42
2018-03-20T04:01:57.911Z,-4.41
2018-03-20T04:03:08.117Z,-4.53
2018-03-20T04:04:18.124Z,-4.42
2018-03-20T04:05:28.081Z,-4.45
2018-03-20T04:06:37.511Z,-4.47
2018-03-20T04:07:46.949Z,-4.42
2018-03-20T04:08:56.906Z,-4.38
2018-03-20T04:10:06.873Z,-4.37
2018-03-20T04:11:16.566Z,-4.38
2018-03-20T04:12:26.518Z,-4.37
2018-03-20T04:13:36.584Z,-4.31
2018-03-20T04:14:46.283Z,-4.41
2018-03-20T04:15:56.240Z,-4.31
2018-03-20T04:17:06.196Z,-4.31
2018-03-20T04:18:16.368Z,-4.31
2018-03-20T04:19:25.823Z,-4.34
2018-03-20T04:20:35.523Z,-4.34
2018-03-20T04:21:45.476Z,-4.34
2018-03-20T04:22:55.433Z,-4.31
2018-03-20T04:24:05.412Z,-4.31
2018-03-20T04:25:14.840Z,-4.17
2018-03-20T04:26:24.580Z,-4.22
2018-03-20T04:27:34.015Z,-4.17
2018-03-20T04:28:43.974Z,-4.08
2018-03-20T04:29:53.419Z,-4.09
2018-03-20T04:31:03.387Z,-4.17
2018-03-20T04:32:13.335Z,-4.19
2018-03-20T04:33:23.285Z,-4.19
2018-03-20T04:34:32.979Z,-4.22
2018-03-20T04:35:42.932Z,-4.35
2018-03-20T04:36:52.890Z,-4.35
2018-03-20T04:38:02.900Z,-4.33
2018-03-20T04:39:12.861Z,-4.41
2018-03-20T04:40:22.554Z,-4.37
2018-03-20T04:41:32.497Z,-4.42
2018-03-20T04:42:42.465Z,-4.44
2018-03-20T04:43:52.163Z,-4.55
2018-03-20T04:45:02.117Z,-4.67
2018-03-20T04:46:11.809Z,-4.62
2018-03-20T04:47:21.768Z,-4.65
2018-03-20T04:48:31.729Z,-4.65
2018-03-20T04:49:41.685Z,-4.65
2018-03-20T04:50:51.653Z,-4.58
2018-03-20T04:52:01.613Z,-4.63
2018-03-20T04:53:11.322Z,-4.62
2018-03-20T04:54:21.279Z,-4.65
2018-03-20T04:55:31.231Z,-4.58
2018-03-20T04:56:41.184Z,-4.55
2018-03-20T04:57:50.623Z,-4.59
2018-03-20T04:59:00.590Z,-4.65
2018-03-20T05:00:10.551Z,-4.7
2018-03-20T05:01:20.251Z,-4.69
2018-03-20T05:02:30.204Z,-4.76
2018-03-20T05:03:39.895Z,-4.8
2018-03-20T05:04:49.602Z,-4.84
2018-03-20T05:05:59.572Z,-4.8
2018-03-20T05:07:09.524Z,-4.79
2018-03-20T05:08:19.479Z,-4.91
2018-03-20T05:09:29.172Z,-4.9
2018-03-20T05:10:39.135Z,-4.87
2018-03-20T05:11:49.336Z,-4.83
2018-03-20T05:12:59.536Z,-4.79
2018-03-20T05:14:09.276Z,-4.79
2018-03-20T05:15:19.218Z,-4.71
2018-03-20T05:16:28.922Z,-4.71
2018-03-20T05:17:38.876Z,-4.74
2018-03-20T05:18:49.176Z,-4.74
2018-03-20T05:19:58.625Z,-4.71
2018-03-20T05:21:08.570Z,-4.65
2018-03-20T05:22:18.519Z,-4.65
2018-03-20T05:23:28.479Z,-4.65
2018-03-20T05:24:38.424Z,-4.61
2018-03-20T05:25:48.110Z,-4.53
2018-03-20T05:26:58.065Z,-4.61
2018-03-20T05:28:08.015Z,-4.52
2018-03-20T05:29:17.712Z,-4.52
2018-03-20T05:30:27.670Z,-4.58
2018-03-20T05:31:37.634Z,-4.62
2018-03-20T05:32:47.067Z,-4.59
2018-03-20T05:33:57.032Z,-4.62
2018-03-20T05:35:06.991Z,-4.74
2018-03-20T05:36:17.200Z,-4.74
2018-03-20T05:37:27.157Z,-4.63
2018-03-20T05:38:36.869Z,-4.62
2018-03-20T05:39:46.834Z,-4.7
2018-03-20T05:40:56.803Z,-4.53
2018-03-20T05:42:06.538Z,-4.49
2018-03-20T05:43:15.711Z,-4.42
2018-03-20T05:44:25.413Z,-4.44
2018-03-20T05:45:35.377Z,-4.47
2018-03-20T05:46:45.322Z,-4.45
2018-03-20T05:47:55.016Z,-4.35
2018-03-20T05:49:04.720Z,-4.34
2018-03-20T05:50:14.678Z,-4.35
2018-03-20T05:51:24.369Z,-4.31
2018-03-20T05:52:34.349Z,-4.35
2018-03-20T05:53:44.551Z,-4.33
2018-03-20T05:54:54.510Z,-4.34
2018-03-20T05:56:04.458Z,-4.35
2018-03-20T05:57:14.420Z,-4.38
2018-03-20T05:58:24.395Z,-4.4
2018-03-20T05:59:34.396Z,-4.3
2018-03-20T06:00:43.839Z,-4.33
2018-03-20T06:01:53.556Z,-4.35
2018-03-20T06:03:03.001Z,-4.19
2018-03-20T06:04:12.706Z,-4.19
2018-03-20T06:05:22.420Z,-3.99
2018-03-20T06:06:32.370Z,-4.02
2018-03-20T06:07:41.806Z,-3.9
2018-03-20T06:08:51.757Z,-3.87
2018-03-20T06:10:01.457Z,-3.84
2018-03-20T06:11:11.422Z,-3.77
2018-03-20T06:12:21.116Z,-3.77
2018-03-20T06:13:30.805Z,-3.64
2018-03-20T06:14:40.755Z,-3.77
2018-03-20T06:15:50.783Z,-3.71
2018-03-20T06:17:01.002Z,-3.78
2018-03-20T06:18:10.967Z,-3.66
2018-03-20T06:19:20.677Z,-3.61
2018-03-20T06:20:30.938Z,-3.61
2018-03-20T06:21:40.381Z,-3.55
2018-03-20T06:22:50.355Z,-3.65
2018-03-20T06:24:00.333Z,-3.51
2018-03-20T06:25:10.300Z,-3.56
2018-03-20T06:26:20.262Z,-3.53
2018-03-20T06:27:30.212Z,-3.53
2018-03-20T06:28:40.210Z,-3.47
2018-03-20T06:29:50.157Z,-3.44
2018-03-20T06:30:59.863Z,-3.32
2018-03-20T06:32:09.574Z,-3.37
2018-03-20T06:33:19.285Z,-3.32
2018-03-20T06:34:29.245Z,-3.36
2018-03-20T06:35:39.523Z,-3.37
2018-03-20T06:36:49.221Z,-3.37
2018-03-20T06:37:58.923Z,-3.37
2018-03-20T06:39:08.742Z,-3.33
2018-03-20T06:40:18.427Z,-3.33
2018-03-20T06:41:27.875Z,-3.3
2018-03-20T06:42:37.311Z,-3.23
2018-03-20T06:43:47.268Z,-3.23
2018-03-20T06:44:56.715Z,-3.22
2018-03-20T06:46:06.156Z,-3.15
2018-03-20T06:47:16.129Z,-3.05
2018-03-20T06:48:26.094Z,-3.08
2018-03-20T06:49:35.792Z,-3.04
2018-03-20T06:50:45.501Z,-2.98
2018-03-20T06:51:55.195Z,-2.91
2018-03-20T06:53:04.918Z,-2.93
2018-03-20T06:54:14.094Z,-2.8
2018-03-20T06:55:23.012Z,-2.78
2018-03-20T06:56:32.713Z,-2.63
2018-03-20T06:57:42.681Z,-2.61
2018-03-20T06:58:52.387Z,-2.48
2018-03-20T07:00:02.096Z,-2.51
2018-03-20T07:01:12.282Z,-2.45
2018-03-20T07:02:21.970Z,-2.39
2018-03-20T07:03:31.945Z,-2.44
2018-03-20T07:04:41.602Z,-2.42
2018-03-20T07:05:51.053Z,-2.44
2018-03-20T07:07:01.032Z,-2.36
2018-03-20T07:08:10.986Z,-2.33
2018-03-20T07:09:20.707Z,-2.26
2018-03-20T07:10:30.680Z,-2.11
2018-03-20T07:11:40.151Z,-2.08
2018-03-20T07:12:50.157Z,-1.99
2018-03-20T07:13:59.329Z,-1.97
2018-03-20T07:15:09.026Z,-2
2018-03-20T07:16:18.983Z,-1.99
2018-03-20T07:17:28.943Z,-1.99
2018-03-20T07:18:38.925Z,-1.96
2018-03-20T07:19:48.677Z,-1.94
2018-03-20T07:20:58.673Z,-1.82
2018-03-20T07:22:08.672Z,-1.92
2018-03-20T07:31:34.582Z,-1.75
2018-03-20T07:32:44.045Z,-1.72
2018-03-20T07:33:54.022Z,-1.69
2018-03-20T07:35:03.984Z,-1.63
2018-03-20T07:36:13.755Z,-1.71
2018-03-20T07:37:23.488Z,-1.75
2018-03-20T07:38:33.215Z,-1.66
2018-03-20T07:39:42.917Z,-1.69
2018-03-20T07:40:52.902Z,-1.57
2018-03-20T07:42:02.664Z,-1.58
2018-03-20T07:43:12.638Z,-1.42
2018-03-20T07:44:22.598Z,-1.42
2018-03-20T07:45:32.662Z,-1.4
2018-03-20T07:46:42.634Z,-1.45
2018-03-20T07:47:52.610Z,-1.45
2018-03-20T07:49:02.576Z,-1.42
2018-03-20T07:50:12.020Z,-1.48
2018-03-20T07:51:22.028Z,-1.38
2018-03-20T07:52:31.733Z,-1.39
2018-03-20T07:53:41.730Z,-1.32
2018-03-20T07:54:51.723Z,-1.29
2018-03-20T07:56:00.913Z,-1.15
2018-03-20T07:57:10.369Z,-1.09
2018-03-20T07:58:19.829Z,-0.96
2018-03-20T07:59:29.804Z,-0.97
2018-03-20T08:00:39.519Z,-0.93
2018-03-20T08:01:49.306Z,-0.91
2018-03-20T08:02:59.275Z,-0.81
2018-03-20T08:04:09.009Z,-0.8
2018-03-20T08:05:18.978Z,-0.81
2018-03-20T08:06:28.174Z,-0.75
2018-03-20T08:07:38.153Z,-0.82
2018-03-20T08:08:47.630Z,-0.62
2018-03-20T08:09:57.860Z,-0.59
2018-03-20T08:11:07.601Z,-0.57
2018-03-20T08:12:17.067Z,-0.67
2018-03-20T08:13:26.564Z,-0.62
2018-03-20T08:14:36.324Z,-0.63
2018-03-20T08:15:46.314Z,-0.62
2018-03-20T08:16:56.021Z,-0.6
2018-03-20T08:18:05.725Z,-0.8
2018-03-20T08:19:15.542Z,-0.82
2018-03-20T08:20:25.506Z,-0.69
2018-03-20T08:21:35.465Z,-0.74
2018-03-20T08:22:45.200Z,-0.64
2018-03-20T08:23:54.930Z,-0.64
2018-03-20T08:25:04.642Z,-0.69
2018-03-20T08:26:14.093Z,-0.63
2018-03-20T08:27:23.837Z,-0.62
2018-03-20T08:28:33.532Z,-0.6
2018-03-20T08:29:43.237Z,-0.56
2018-03-20T08:30:53.202Z,-0.53
2018-03-20T08:32:02.930Z,-0.53
2018-03-20T08:33:12.147Z,-0.66
2018-03-20T08:34:21.874Z,-0.56
2018-03-20T08:35:31.856Z,-0.63
2018-03-20T08:36:41.906Z,-0.62
2018-03-20T08:37:51.732Z,-0.62
2018-03-20T08:39:01.441Z,-0.56
2018-03-20T08:40:11.493Z,-0.56
2018-03-20T08:41:21.466Z,-0.6
2018-03-20T08:42:31.440Z,-0.54
2018-03-20T08:43:41.389Z,-0.45
2018-03-20T08:44:50.850Z,-0.46
2018-03-20T08:46:00.823Z,-0.53
2018-03-20T08:47:10.543Z,-0.44
2018-03-20T08:48:20.524Z,-0.48
2018-03-20T08:49:30.325Z,-0.51
2018-03-20T08:50:40.069Z,-0.41
2018-03-20T08:51:49.797Z,-0.21
2018-03-20T08:52:59.773Z,-0.17
2018-03-20T08:54:09.743Z,-0.18
2018-03-20T08:55:19.722Z,-0.1
2018-03-20T08:56:29.245Z,-0.15
2018-03-20T08:57:39.254Z,-0.06
2018-03-20T08:58:48.993Z,-0.17
2018-03-20T08:59:58.779Z,-0.12
2018-03-20T09:01:08.487Z,-0.18
2018-03-20T09:02:18.468Z,-0.13
2018-03-20T09:03:28.516Z,-0.17
2018-03-20T09:04:38.238Z,-0.26
2018-03-20T09:05:47.431Z,-0.36
2018-03-20T09:06:57.143Z,-0.36
2018-03-20T09:08:07.106Z,-0.36
2018-03-20T09:09:16.613Z,-0.39
2018-03-20T09:10:26.641Z,-0.38
2018-03-20T09:11:36.116Z,-0.3
2018-03-20T09:12:46.100Z,-0.15
2018-03-20T09:13:55.314Z,-0.13
2018-03-20T09:15:05.052Z,-0.13
2018-03-20T09:16:14.796Z,-0.13
2018-03-20T09:17:24.561Z,-0.15
2018-03-20T09:18:34.282Z,-0.24
2018-03-20T09:19:44.294Z,-0.28
2018-03-20T09:20:54.016Z,-0.38
2018-03-20T09:22:03.528Z,-0.38
2018-03-20T09:23:13.280Z,-0.42
2018-03-20T09:24:23.016Z,-0.35
2018-03-20T09:25:33.100Z,-0.38
2018-03-20T09:26:43.126Z,-0.36
2018-03-20T09:27:52.964Z,-0.33
2018-03-20T09:29:02.937Z,-0.35
2018-03-20T09:30:12.705Z,-0.35
2018-03-20T09:31:22.469Z,-0.31
2018-03-20T09:32:32.208Z,-0.26
2018-03-20T09:33:41.673Z,-0.31
2018-03-20T09:34:51.402Z,-0.21
2018-03-20T09:36:01.142Z,-0.3
2018-03-20T09:37:11.157Z,-0.31
2018-03-20T09:38:21.191Z,-0.27
2018-03-20T09:39:30.981Z,-0.28
2018-03-20T09:40:40.995Z,-0.17
2018-03-20T09:41:50.483Z,-0.2
2018-03-20T09:43:00.488Z,-0.23
2018-03-20T09:44:09.970Z,-0.1
2018-03-20T09:45:19.443Z,-0.06
2018-03-20T09:46:29.676Z,0.06
2018-03-20T09:47:39.539Z,0.08
2018-03-20T09:48:49.560Z,0.27
2018-03-20T09:49:59.557Z,0.19
2018-03-20T09:51:08.496Z,0.24
2018-03-20T09:52:18.241Z,0.2
2018-03-20T09:53:27.699Z,0.29
2018-03-20T09:54:37.445Z,0.47
2018-03-20T09:55:46.906Z,0.47
2018-03-20T09:56:56.649Z,0.52
2018-03-20T09:58:06.101Z,0.51
2018-03-20T09:59:15.816Z,0.68
2018-03-20T10:00:25.802Z,0.73
2018-03-20T10:01:35.563Z,0.74
2018-03-20T10:02:45.605Z,0.64
2018-03-20T10:03:55.084Z,0.42
2018-03-20T10:05:05.115Z,0.44
2018-03-20T10:06:15.102Z,0.55
2018-03-20T10:07:24.565Z,0.47
2018-03-20T10:08:34.312Z,0.64
2018-03-20T10:09:44.570Z,0.66
2018-03-20T10:10:54.532Z,0.77
2018-03-20T10:12:04.277Z,0.86
2018-03-20T10:13:14.026Z,1.02
2018-03-20T10:14:23.751Z,1.07
2018-03-20T10:15:33.456Z,1.12
2018-03-20T10:16:43.486Z,1.31
2018-03-20T10:17:53.215Z,1.25
2018-03-20T10:19:02.718Z,1.16
2018-03-20T10:20:12.742Z,1.13
2018-03-20T10:21:22.643Z,1.14
2018-03-20T10:22:32.367Z,1.12
2018-03-20T10:23:42.367Z,1.14
2018-03-20T10:24:52.363Z,1.28
2018-03-20T10:26:01.835Z,1.38
2018-03-20T10:27:11.291Z,1.5
2018-03-20T10:28:21.285Z,1.53
2018-03-20T10:29:30.504Z,1.58
2018-03-20T10:30:40.580Z,1.56
2018-03-20T10:31:50.613Z,1.49
2018-03-20T10:33:00.340Z,1.6
2018-03-20T10:34:09.820Z,1.63
2018-03-20T10:35:19.816Z,1.78
2018-03-20T10:36:29.904Z,1.81
2018-03-20T10:37:39.875Z,1.85
2018-03-20T10:38:49.608Z,1.85
2018-03-20T10:39:59.354Z,1.97
2018-03-20T10:41:09.356Z,1.95
2018-03-20T10:42:19.337Z,2.03
2018-03-20T10:43:29.053Z,2.07
2018-03-20T10:44:39.297Z,2.03
2018-03-20T10:45:49.296Z,2.1
2018-03-20T10:46:59.322Z,2.18
2018-03-20T10:48:09.208Z,2.18
2018-03-20T10:49:18.412Z,2.15
2018-03-20T10:50:28.396Z,1.98
2018-03-20T10:51:38.377Z,1.78
2018-03-20T10:52:48.405Z,1.66
2018-03-20T10:53:58.127Z,1.56
2018-03-20T10:55:07.909Z,1.5
2018-03-20T10:56:17.745Z,1.58
2018-03-20T10:57:27.736Z,1.58
2018-03-20T10:58:37.453Z,1.48
2018-03-20T10:59:47.177Z,1.46
2018-03-20T11:00:57.175Z,1.39
2018-03-20T11:02:06.921Z,1.42
2018-03-20T11:03:16.644Z,1.5
2018-03-20T11:04:26.642Z,1.39
2018-03-20T11:05:36.366Z,1.28
2018-03-20T11:06:46.363Z,1.16
2018-03-20T11:07:56.403Z,1.12
2018-03-20T11:09:06.382Z,1.07
2018-03-20T11:10:16.099Z,1
2018-03-20T11:11:25.862Z,0.99
2018-03-20T11:12:35.845Z,1.03
2018-03-20T11:13:45.841Z,0.99
2018-03-20T11:14:55.567Z,1
2018-03-20T11:16:05.274Z,0.89
2018-03-20T11:17:14.994Z,0.88
2018-03-20T11:18:24.728Z,0.91
2018-03-20T11:19:34.175Z,0.94
2018-03-20T11:20:44.390Z,0.86
2018-03-20T11:21:54.383Z,0.82
2018-03-20T11:23:04.361Z,0.82
2018-03-20T11:24:13.830Z,0.84
2018-03-20T11:25:23.813Z,0.91
2018-03-20T11:26:33.539Z,0.88
2018-03-20T11:27:43.556Z,0.92
2018-03-20T11:28:53.054Z,0.95
2018-03-20T11:30:02.901Z,1
2018-03-20T11:31:12.940Z,0.96
2018-03-20T11:32:22.925Z,0.96
2018-03-20T11:33:32.693Z,1.07
2018-03-20T11:34:42.407Z,1.07
2018-03-20T11:35:52.402Z,1.16
2018-03-20T11:37:02.387Z,1.13
2018-03-20T11:38:12.104Z,1.22
2018-03-20T11:39:22.092Z,1.12
2018-03-20T11:40:32.080Z,1.18
2018-03-20T11:41:42.057Z,1.14
2018-03-20T11:42:51.820Z,1.12
2018-03-20T11:44:01.855Z,1.21
2018-03-20T11:45:11.589Z,1.07
2018-03-20T11:46:21.570Z,1.12
2018-03-20T11:47:31.578Z,1.07
2018-03-20T11:48:41.735Z,1.1
2018-03-20T11:49:51.731Z,1.06
2018-03-20T11:51:01.712Z,1.09
2018-03-20T11:52:11.708Z,1.07
2018-03-20T11:53:21.720Z,1.12
2018-03-20T11:54:31.703Z,1.16
2018-03-20T11:55:41.204Z,1.25
2018-03-20T11:56:51.187Z,1.32
2018-03-20T11:58:00.911Z,1.39
2018-03-20T11:59:10.907Z,1.39
2018-03-20T12:00:20.632Z,1.46
2018-03-20T12:01:30.615Z,1.48
2018-03-20T12:02:40.585Z,1.45
2018-03-20T12:03:50.598Z,1.42
2018-03-20T12:05:00.304Z,1.53
2018-03-20T12:06:09.860Z,1.6
2018-03-20T12:07:19.868Z,1.5
2018-03-20T12:08:29.574Z,1.56
2018-03-20T12:09:39.328Z,1.53
2018-03-20T12:10:49.084Z,1.52
2018-03-20T12:11:58.804Z,1.48
2018-03-20T12:13:08.922Z,1.48
2018-03-20T12:14:18.685Z,1.34
2018-03-20T12:15:28.658Z,1.43
2018-03-20T12:16:38.375Z,1.45
2018-03-20T12:17:48.317Z,1.53
2018-03-20T12:18:58.301Z,1.45
2018-03-20T12:20:08.035Z,1.46
2018-03-20T12:21:17.754Z,1.56
2018-03-20T12:22:27.731Z,1.46
2018-03-20T12:23:37.703Z,1.56
2018-03-20T12:24:47.691Z,1.52
2018-03-20T12:25:57.658Z,1.58
2018-03-20T12:27:07.619Z,1.58
2018-03-20T12:28:17.624Z,1.6
2018-03-20T12:29:27.460Z,1.63
2018-03-20T12:30:37.197Z,1.63
2018-03-20T12:31:46.915Z,1.63
2018-03-20T12:32:56.728Z,1.7
2018-03-20T12:34:06.450Z,1.79
2018-03-20T12:35:16.543Z,1.84
2018-03-20T12:36:26.513Z,1.81
2018-03-20T12:37:36.221Z,1.89
2018-03-20T12:38:45.400Z,1.97
2018-03-20T12:39:55.338Z,1.93
2018-03-20T12:41:05.317Z,1.98
2018-03-20T12:42:15.300Z,1.89
2018-03-20T12:43:25.018Z,1.97
2018-03-20T12:44:34.736Z,1.93
2018-03-20T12:45:44.448Z,2.08
2018-03-20T12:46:54.173Z,2.04
2018-03-20T12:48:04.159Z,2.04
2018-03-20T12:49:14.154Z,2.01
2018-03-20T12:50:23.876Z,2.07
2018-03-20T12:51:33.861Z,2.14
2018-03-20T12:52:43.569Z,2.21
2018-03-20T12:53:53.270Z,2.3
2018-03-20T12:55:03.284Z,2.32
2018-03-20T12:56:12.745Z,2.46
2018-03-20T12:57:22.487Z,2.5
2018-03-20T12:58:32.202Z,2.55
2018-03-20T12:59:41.970Z,2.7
2018-03-20T13:00:51.957Z,2.75
2018-03-20T13:02:00.877Z,2.8
2018-03-20T13:03:10.337Z,2.95
2018-03-20T13:04:19.821Z,3.13
2018-03-20T13:05:29.543Z,3.06
2018-03-20T13:06:39.269Z,3.19
2018-03-20T13:07:48.983Z,3.29
2018-03-20T13:08:59.280Z,3.21
2018-03-20T13:10:09.004Z,3.31
2018-03-20T13:11:18.768Z,3.18
2018-03-20T13:12:28.745Z,3.31
2018-03-20T13:13:38.724Z,3.21
2018-03-20T13:14:48.204Z,3.3
2018-03-20T13:15:57.420Z,3.33
2018-03-20T13:17:07.399Z,3.3
2018-03-20T13:18:17.367Z,3.26
2018-03-20T13:19:27.210Z,3.33
2018-03-20T13:20:37.177Z,3.29
2018-03-20T13:21:46.879Z,3.27
2018-03-20T13:22:56.587Z,3.45
2018-03-20T13:24:06.329Z,3.46
2018-03-20T13:25:16.043Z,3.5
2018-03-20T13:26:25.756Z,3.5
2018-03-20T13:27:35.195Z,3.58
2018-03-20T13:28:44.904Z,3.49
2018-03-20T13:29:54.866Z,3.61
2018-03-20T13:31:04.839Z,3.58
2018-03-20T13:32:14.543Z,3.59
2018-03-20T13:33:24.003Z,3.49
2018-03-20T13:34:33.717Z,3.64
2018-03-20T13:35:43.794Z,3.55
2018-03-20T13:36:53.762Z,3.45
2018-03-20T13:38:03.735Z,3.48
2018-03-20T13:39:13.433Z,3.46
2018-03-20T13:40:23.425Z,3.36
2018-03-20T13:41:33.441Z,3.34
2018-03-20T13:42:43.154Z,3.37
2018-03-20T13:43:53.139Z,3.31
2018-03-20T13:45:02.871Z,3.31
2018-03-20T13:46:12.339Z,3.3
2018-03-20T13:47:22.335Z,3.21
2018-03-20T13:48:32.309Z,3.18
2018-03-20T13:49:42.336Z,3.3
2018-03-20T13:50:58.677Z,3.29
2018-03-20T13:52:08.860Z,3.29
2018-03-20T13:53:18.571Z,3.19
2018-03-20T13:54:28.310Z,3.15
2018-03-20T13:55:38.022Z,3.11
2018-03-20T13:56:47.500Z,3.08
2018-03-20T13:57:57.209Z,3.11
2018-03-20T13:59:07.153Z,3.15
2018-03-20T14:00:16.346Z,3.19
2018-03-20T14:01:26.073Z,3.09
2018-03-20T14:02:36.063Z,3.09
2018-03-20T14:03:45.767Z,3.13
2018-03-20T14:04:55.205Z,3.09
2018-03-20T14:06:05.226Z,3.12
2018-03-20T14:07:14.756Z,3.11
2018-03-20T14:08:24.752Z,3.12
2018-03-20T14:09:34.740Z,3.18
2018-03-20T14:10:44.235Z,3.15
2018-03-20T14:11:53.427Z,3.09
2018-03-20T14:13:03.406Z,3.09
2018-03-20T14:14:13.381Z,3.08
2018-03-20T14:15:23.090Z,3.09
2018-03-20T14:16:33.076Z,3.06
2018-03-20T14:17:43.047Z,3.01
2018-03-20T14:18:53.038Z,3.03
2018-03-20T14:20:02.999Z,3.05
2018-03-20T14:21:12.454Z,3.01
2018-03-20T14:22:22.167Z,3.09
2018-03-20T14:23:31.880Z,3.11
2018-03-20T14:24:41.592Z,3.12
2018-03-20T14:25:51.829Z,3.09
2018-03-20T14:27:01.826Z,3.08
2018-03-20T14:28:11.805Z,3.13
2018-03-20T14:29:21.788Z,3.15
2018-03-20T14:30:31.507Z,3.06
2018-03-20T14:31:41.485Z,3.13
2018-03-20T14:32:50.943Z,3.08
2018-03-20T14:34:00.717Z,3.08
2018-03-20T14:35:10.430Z,3.08
2018-03-20T14:36:20.147Z,3.03
2018-03-20T14:37:30.117Z,3
2018-03-20T14:38:40.084Z,3.05
2018-03-20T14:39:49.622Z,3.06
2018-03-20T14:40:59.357Z,3
2018-03-20T14:42:08.815Z,3.06
2018-03-20T14:43:18.809Z,3.08
2018-03-20T14:44:28.262Z,3.11
2018-03-20T14:45:37.709Z,3.08
2018-03-20T14:46:47.574Z,3.11
2018-03-20T14:47:57.274Z,3.12
2018-03-20T14:49:06.989Z,3.09
2018-03-20T14:50:16.685Z,3.09
2018-03-20T14:51:26.655Z,3.11
2018-03-20T14:52:36.369Z,3.08
2018-03-20T14:53:46.355Z,3.21
2018-03-20T14:54:56.092Z,3.24
2018-03-20T14:56:06.187Z,3.22
2018-03-20T14:57:15.633Z,3.26
2018-03-20T14:58:25.338Z,3.19
2018-03-20T14:59:34.777Z,3.33
2018-03-20T15:00:44.746Z,3.16
2018-03-20T15:01:54.853Z,3.29
2018-03-20T15:03:04.673Z,3.34
2018-03-20T15:04:14.398Z,3.45
2018-03-20T15:05:23.861Z,3.56
2018-03-20T15:06:33.835Z,3.49
2018-03-20T15:07:43.555Z,3.63
2018-03-20T15:08:53.543Z,3.64
2018-03-20T15:10:03.061Z,3.63
2018-03-20T15:11:12.498Z,3.64
2018-03-20T15:12:21.961Z,3.56
2018-03-20T15:13:32.062Z,3.66
2018-03-20T15:14:41.531Z,3.68
2018-03-20T15:15:51.265Z,3.68
2018-03-20T15:17:01.243Z,3.68
2018-03-20T15:18:10.688Z,3.68
2018-03-20T15:19:20.677Z,3.64
2018-03-20T15:20:30.145Z,3.67
2018-03-20T15:21:39.869Z,3.71
2018-03-20T15:22:49.587Z,3.66